letzte Messungen

aktuelles Wetter
cielo
Temperatur
temperatura
Niederschläge
pioggia
Feuchtigkeit
umidita
Wind
vento
durchschnittliches Wind
vento_medio
Luftdruck
pressione
Tabelle
aktuelle Situation
StationUhr
(CEST)
BedeckungNieder.
mm
temp.
°C
Feuchtigkeit
%
Wind
km/h
maximum Wind
km/h
Luftdruck
hPa
Globalstrahlung
KJ/m2
Meer
°C
Schnee
cm
Pontafel 03:00 nuvoloso 0.0 13.6 97 5E 9 953.0 0 - -
Weißenfels 04:00 sereno - - - - 4 - - - -
Ariis 04:00 poco nuv. 0.0 17.3 86 - - - - - -
Barcis 04:00 coperto 0.0 13.2 88 - 3 - 0 - -
B.go Grotta Gigante 04:00 sereno 0.0 12.0 77 6E 10 985.4 42 - -
Bicinicco 04:00 variabile 0.0 16.4 79 1NE 5 - - - -
Boa Paloma 04:00 sereno - 19.6 59 - - 1015.8 0 - -
Bordano 04:00 poco nuv. 0.0 17.5 - - - - - - -
Brugnera 04:00 variabile 0.0 16.5 84 6N 10 1012.7 0 - -
Capriva del Friuli 04:00 sereno 0.0 18.2 49 8NE 18 1006.2 1 - -
Raibl 04:00 coperto 0.0 6.6 100 - - 913.1 - - -
Cervignano 04:00 variabile 0.0 15.9 75 2NNE 6 1015.2 0 - -
Chievolis 04:00 variabile 0.0 14.5 - - - - 0 - -
Cividale 04:00 variabile 0.0 16.6 69 13NE 23 1000.0 0 - -
Camino al Tgl. 04:00 sereno 0.0 16.2 81 - - - - - -
Codroipo 04:00 poco nuv. 0.0 16.1 92 3NE 6 1011.0 0 - -
Enemonzo 04:00 poco nuv. 0.0 13.4 97 4W 8 964.7 0 - -
Fagagna 04:00 variabile 0.0 17.7 70 8NNE 12 999.5 4 - -
Fossalon 04:00 sereno 0.0 18.0 68 13E 21 1015.9 0 - -
Forni di Sopra 04:00 coperto 0.0 12.9 89 1NNE 5 913.1 0 - -
Gemona del F. 04:00 variabile 0.0 14.8 92 1ENE 6 994.0 1 - -
Gradisca 04:00 sereno 0.0 16.9 58 7ENE 12 1013.8 6 - -
Gorgo 04:00 poco nuv. 0.0 17.1 67 4NNE 7 - - - -
Grado Mare 04:00 poco nuv. - - - 13E 23 - 0 - -
Lauzacco 04:00 nuvoloso 0.0 17.7 67 8NNE 16 - - - -
Lignano S. 04:00 poco nuv. 0.0 21.3 49 22ENE 28 1011.8 4 23.6 -
Luschariberg 04:00 nuvoloso 0.0 5.7 87 7E 15 825.5 0 - -
M.te Matajur 04:00 variabile - 7.2 - 5NNE 13 837.0 0 - -
Muggia 04:00 sereno 0.0 17.3 70 8ESE 14 1017.3 0 - -
Monfalcone 04:00 sereno 0.0 19.7 49 13E 26 1015.2 0 - -
Musi 04:00 nuvoloso 0.0 12.1 86 1ENE 6 - 0 - -
Palazzolo 04:00 poco nuv. 0.0 16.4 78 6NNE 10 1011.8 0 - -
M.te Pala d'Altei 04:00 coperto - 8.5 76 21SSE 30 849.3 0 - -
Piancavallo 04:00 coperto 0.0 7.7 88 1S 3 873.1 0 - -
Pordenone 04:00 variabile 0.0 16.5 - 5NNW 9 - 0 - -
Pradamano 04:00 variabile 0.0 18.0 73 4NE 8 - - - -
Rivis 04:00 sereno 0.0 16.2 89 - - - - - -
San Vito al Tgl. 04:00 sereno 0.0 - 94 4NNW 10 1011.3 0 - -
Sappada (ARPAV) 03:00 variabile 0.0 11.4 90 -E - - 0 - -
Sgonico 04:00 sereno 0.0 15.7 61 13NNE 19 984.9 0 - -
San Pietro al Nat. 04:00 poco nuv. 0.0 16.8 73 10E 15 995.0 0 - -
Talmassons 04:00 poco nuv. 0.0 17.3 75 3NE 6 1013.6 0 - -
Tarvis 04:00 coperto 0.0 7.7 98 1N 3 926.6 0 - -
Tolmezzo 04:00 poco nuv. 0.0 16.1 86 2N 6 - 0 - -
Triest 04:00 sereno 0.0 19.6 52 16ENE 24 1016.8 0 19.8 -
Udine 04:00 coperto 0.0 18.7 62 5NE 10 1004.2 0 - -
Vivaro 04:00 poco nuv. 0.0 14.5 83 4W 11 1000.4 1 - -
M.te Zoncolan 04:00 poco nuv. - 7.4 72 15E 19 827.8 0 - -

von 00 UTC bis zur letzte Messungen

Bedeckung
cielo
minimale Temperatur
temperatura_min
maximale Temperatur
temperatura_max
Niederschläge gesamt
pioggia
durchschnittliche Feuchtigkeit
umidita
maximum Wind
vento
Tabelle
täglichen Fassungen vom 14-07-2020 von 00 UTC bis zur letzte Messungen
Stationletzte
Messungen
(CEST)
BedeckungNieder.
mm
temp. min
°C
temp. med
°C
temp. max
°C
durchschnittliche Feuchtigkeit
%
durchschnittliches Wind
km/h
maximum Wind
km/h
Globalstrahlung
KJ/m2
Pontafel 03:00 n.d. 0.0 13.6 13.6 13.6 98 3 9 0
Weißenfels 04:00 n.d. 0.0 4.9 2.5 4.9 47 1 5 -
Ariis 04:00 n.d. 0.0 17.3 17.6 17.8 81 - - -
Barcis 04:00 n.d. 0.0 13.2 13.4 13.7 88 - 4 0
B.go Grotta Gigante 04:00 n.d. 0.0 12.0 12.4 12.9 74 6 10 84
Bicinicco 04:00 n.d. 0.0 16.4 16.9 17.3 77 1 5 -
Boa Paloma 04:00 n.d. - 19.6 19.8 19.9 56 - - 0
Bordano 04:00 n.d. 0.0 17.5 17.6 17.7 - - - -
Brugnera 04:00 n.d. 0.0 16.4 16.4 16.5 83 6 13 0
Capriva del Friuli 04:00 n.d. 0.0 18.2 18.4 18.6 49 7 18 2
Raibl 04:00 n.d. 0.0 6.6 7.0 7.4 100 - - -
Cervignano 04:00 n.d. 0.0 15.9 16.5 17.1 73 3 9 0
Chievolis 04:00 n.d. 0.0 14.1 14.3 14.5 - - - 0
Cividale 04:00 n.d. 0.0 16.6 16.8 16.9 69 12 23 0
Camino al Tgl. 04:00 n.d. 0.0 16.2 16.9 17.7 77 - - -
Codroipo 04:00 n.d. 0.0 16.1 16.8 17.5 90 3 6 0
Enemonzo 04:00 n.d. 0.0 13.4 13.8 14.1 97 3 8 0
Fagagna 04:00 n.d. 0.0 17.7 17.9 18.1 72 5 12 10
Fossalon 04:00 n.d. 0.0 18.0 18.4 18.7 66 14 22 0
Forni di Sopra 04:00 n.d. 0.0 12.9 12.9 13.0 88 2 6 0
Gemona del F. 04:00 n.d. 0.0 14.4 14.6 14.8 94 1 6 1
Gradisca 04:00 n.d. 0.0 16.9 17.1 17.3 59 6 12 13
Gorgo 04:00 n.d. 0.0 17.1 17.5 17.9 64 4 9 -
Grado Mare 04:00 n.d. - - - - - 14 24 0
Lauzacco 04:00 n.d. 0.0 17.7 18.3 18.9 63 8 18 -
Lignano S. 04:00 n.d. 0.0 21.3 21.3 21.3 51 22 29 8
Luschariberg 04:00 n.d. 0.0 5.7 5.9 6.1 86 7 16 0
M.te Matajur 04:00 n.d. - 7.2 7.3 7.5 - 5 13 0
Muggia 04:00 n.d. 0.0 17.3 18.1 19.0 64 8 17 0
Monfalcone 04:00 n.d. 0.0 19.3 19.5 19.7 50 14 26 0
Musi 04:00 n.d. 0.0 12.1 12.1 12.2 86 1 6 0
Palazzolo 04:00 n.d. 0.0 16.4 16.8 17.1 76 6 12 0
M.te Pala d'Altei 04:00 n.d. - 8.5 8.6 8.6 78 19 30 0
Piancavallo 04:00 n.d. 0.0 7.6 7.7 7.7 88 2 5 0
Pordenone 04:00 n.d. 0.0 16.5 16.8 17.1 - 6 9 0
Pradamano 04:00 n.d. 0.0 18.0 18.6 19.1 72 4 8 -
Rivis 04:00 n.d. 0.0 16.2 17.0 17.8 85 - - -
San Vito al Tgl. 04:00 n.d. 0.0 - - - 89 5 10 0
Sappada (ARPAV) 03:00 n.d. 0.0 11.4 11.4 11.4 90 - - 0
Sgonico 04:00 n.d. 0.0 15.7 15.8 15.8 61 12 21 0
San Pietro al Nat. 04:00 n.d. 0.0 16.8 17.1 17.4 71 11 16 0
Talmassons 04:00 n.d. 0.0 17.3 17.3 17.3 73 4 8 0
Tarvis 04:00 n.d. 0.0 7.7 8.0 8.3 98 1 4 0
Tolmezzo 04:00 n.d. 0.0 16.1 16.6 17.1 81 3 8 0
Triest 04:00 n.d. 0.0 19.6 19.8 19.9 52 14 27 0
Udine 04:00 n.d. 0.0 18.7 19.2 19.8 58 6 11 0
Vivaro 04:00 n.d. 0.0 14.5 14.6 14.6 83 6 13 2
M.te Zoncolan 04:00 n.d. - 7.4 7.5 7.6 72 14 19 0
Auskünfte
OSMER Bearbeitung der Daten des meteoklimatischen Stationen Netzes der Region FVJ, von der regionalen Zivilschutz verwaltet